Beringovskiy, Russia
Current Conditions -  °F | °C
As of 4:00 AM on Friday 31 Oct 2014 (Local Time) from UHMA Reporting Station
Light Snow Light Snow  
Wind Chill: 20°   Ceiling: 8000
Heat Index: 30°   Visibility: 6mi
Dew Point: 21°   Wind: 13mph
Humidity: 69%   Direction: 100°E
Pressure: 29.91"   Gusts: NA
Location:  63.05°N, 179.32°E
Report Text: UHMA 301600Z 10006MPS 9999 -SN SCT033 OVC080 M01/M06 Q1013 RMKQFE756/1007
Loading
Personal Weather Stations






























Interactive Weather Map
Tropical Storm Tracking
New forecast layout! Learn more

10-Day Weather Forecast

Advertisements
Track Severe Weather on mobile